This is the latest recevied weather packets stored in our database for station/object DL3GCR-10. If no packets are shown the sender has not sent any weather packets the latest 10 day(s).
| Time | Temp. | Humidity | Pressure | Rain* | Wind** | Luminosity | Snow |
|---|---|---|---|---|---|---|---|
| 1777800137 | 18.89° C | 52% | 1017.2 hPa | - | - | - | - |
| 1777799236 | 18.33° C | 60% | 1017.4 hPa | - | - | - | - |
| 1777798336 | 18.33° C | 57% | 1017.5 hPa | - | - | - | - |
| 1777797436 | 17.78° C | 62% | 1017.6 hPa | - | - | - | - |
| 1777796536 | 17.22° C | 63% | 1017.6 hPa | - | - | - | - |
| 1777795636 | 16.11° C | 67% | 1017.7 hPa | - | - | - | - |
| 1777794736 | 15.56° C | 67% | 1017.8 hPa | - | - | - | - |
| 1777793835 | 15° C | 72% | 1017.9 hPa | - | - | - | - |
| 1777792935 | 14.44° C | 75% | 1018 hPa | - | - | - | - |
| 1777792035 | 13.89° C | 76% | 1018 hPa | - | - | - | - |
| 1777791135 | 13.89° C | 76% | 1018.1 hPa | - | - | - | - |
| 1777790235 | 13.89° C | 74% | 1017.9 hPa | - | - | - | - |
| 1777789335 | 14.44° C | 74% | 1017.9 hPa | - | - | - | - |
| 1777788434 | 14.44° C | 71% | 1018.1 hPa | - | - | - | - |
| 1777787534 | 14.44° C | 69% | 1017.6 hPa | - | - | - | - |
| 1777786634 | 14.44° C | 69% | 1017.6 hPa | - | - | - | - |
| 1777785734 | 14.44° C | 67% | 1017.4 hPa | - | - | - | - |
| 1777784834 | 15° C | 62% | 1017 hPa | - | - | - | - |
| 1777783933 | 14.44° C | 59% | 1016.8 hPa | - | - | - | - |
| 1777783033 | 14.44° C | 62% | 1017.6 hPa | - | - | - | - |
| 1777782144 | 14.44° C | 54% | 1017.1 hPa | - | - | - | - |
| 1777781244 | 14.44° C | 57% | 1017.2 hPa | - | - | - | - |
| 1777780343 | 14.44° C | 54% | 1017.1 hPa | - | - | - | - |
| 1777779442 | 14.44° C | 52% | 1017.1 hPa | - | - | - | - |
| 1777778541 | 14.44° C | 54% | 1017.1 hPa | - | - | - | - |
* Rain since midnight (hover to see other rain measurements)
** Current wind speed in m/s (hover to see current wind gust speed)